createdAt,value
2019-01-19T00:01:48.345Z,83.70
2019-01-19T00:05:11.393Z,83.30
2019-01-19T00:08:20.931Z,83.50
2019-01-19T00:11:37.685Z,82.40
2019-01-19T00:14:37.483Z,83.80
2019-01-19T00:18:13.049Z,82.50
2019-01-19T00:21:08.329Z,83.30
2019-01-19T00:24:20.459Z,82.40
2019-01-19T00:27:15.660Z,84.00
2019-01-19T00:30:06.621Z,82.90
2019-01-19T00:33:14.337Z,83.30
2019-01-19T00:36:23.179Z,82.20
2019-01-19T00:39:24.566Z,84.00
2019-01-19T00:42:08.923Z,82.30
2019-01-19T00:45:29.727Z,82.90
2019-01-19T00:48:29.727Z,83.50
2019-01-19T00:51:37.596Z,82.70
2019-01-19T00:54:35.513Z,82.60
2019-01-19T00:57:40.289Z,81.50
2019-01-19T01:00:30.626Z,81.40
2019-01-19T01:03:24.204Z,81.10
2019-01-19T01:06:04.554Z,81.00
2019-01-19T01:09:14.969Z,81.50
2019-01-19T01:12:02.318Z,82.20
2019-01-19T01:15:07.426Z,83.40
2019-01-19T01:17:51.721Z,83.40
2019-01-19T01:21:12.697Z,84.30
2019-01-19T01:24:04.325Z,84.70
2019-01-19T01:27:14.619Z,84.90
2019-01-19T01:30:39.274Z,83.70
2019-01-19T01:33:26.699Z,83.60
2019-01-19T01:36:30.250Z,83.60
2019-01-19T01:39:35.085Z,83.10
2019-01-19T01:42:36.633Z,82.20
2019-01-19T01:45:25.208Z,83.60
2019-01-19T01:48:24.882Z,83.20
2019-01-19T01:51:37.662Z,86.50
2019-01-19T01:54:50.491Z,83.20
2019-01-19T01:58:04.230Z,82.70
2019-01-19T02:00:50.878Z,86.30
2019-01-19T02:03:57.760Z,84.70
2019-01-19T02:07:02.533Z,84.20
2019-01-19T02:09:45.288Z,82.50
2019-01-19T02:12:30.637Z,83.10
2019-01-19T02:15:27.840Z,82.90
2019-01-19T02:18:35.969Z,83.90
2019-01-19T02:22:13.974Z,83.50
2019-01-19T02:24:59.396Z,83.80
2019-01-19T02:27:53.872Z,83.90
2019-01-19T02:30:50.036Z,84.50
2019-01-19T02:34:06.500Z,83.90
2019-01-19T02:37:20.012Z,84.60
2019-01-19T02:40:00.905Z,85.20
2019-01-19T02:43:01.891Z,84.70
2019-01-19T02:46:01.386Z,84.30
2019-01-19T02:49:17.147Z,84.80
2019-01-19T02:52:19.132Z,84.70
2019-01-19T02:55:15.697Z,84.30
2019-01-19T02:58:28.230Z,84.60
2019-01-19T03:01:35.949Z,84.40
2019-01-19T03:04:38.237Z,84.40
2019-01-19T03:07:47.866Z,85.60
2019-01-19T03:11:03.143Z,84.40
2019-01-19T03:14:20.929Z,85.40
2019-01-19T03:17:25.599Z,86.50
2019-01-19T03:20:05.259Z,84.50
2019-01-19T03:23:18.318Z,84.50
2019-01-19T03:26:12.788Z,85.00
2019-01-19T03:29:15.105Z,86.30
2019-01-19T03:32:32.346Z,85.00
2019-01-19T03:35:41.829Z,85.60
2019-01-19T03:38:40.862Z,86.60
2019-01-19T03:42:03.736Z,86.50
2019-01-19T03:44:57.886Z,86.40
2019-01-19T03:47:56.767Z,86.00
2019-01-19T03:50:44.206Z,86.70
2019-01-19T03:53:37.666Z,86.10
2019-01-19T03:56:41.618Z,86.50
2019-01-19T04:00:13.061Z,86.50
2019-01-19T04:03:20.743Z,86.50
2019-01-19T04:06:52.477Z,86.40
2019-01-19T04:10:03.603Z,86.00
2019-01-19T04:13:21.204Z,86.30
2019-01-19T04:16:19.913Z,86.80
2019-01-19T04:19:21.159Z,86.90
2019-01-19T04:22:24.753Z,86.60
2019-01-19T04:25:21.987Z,88.50
2019-01-19T04:27:51.843Z,88.50
2019-01-19T04:30:22.299Z,88.10
2019-01-19T04:32:51.699Z,87.50
2019-01-19T04:35:22.175Z,88.50
2019-01-19T04:37:52.029Z,88.30
2019-01-19T04:40:21.846Z,87.50
2019-01-19T04:42:51.786Z,88.30
2019-01-19T04:45:21.524Z,88.50
2019-01-19T04:47:51.544Z,88.60
2019-01-19T04:50:21.293Z,88.80
2019-01-19T04:52:50.830Z,88.60
2019-01-19T04:55:20.347Z,89.60
2019-01-19T04:57:49.462Z,89.50
2019-01-19T05:00:20.411Z,90.40
2019-01-19T05:02:49.516Z,90.50
2019-01-19T05:05:18.871Z,90.60
2019-01-19T05:07:48.578Z,90.00
2019-01-19T05:10:18.410Z,90.50
2019-01-19T05:12:48.171Z,91.20
2019-01-19T05:15:20.097Z,90.80
2019-01-19T05:17:49.572Z,90.60
2019-01-19T05:20:19.777Z,90.10
2019-01-19T05:22:49.155Z,90.00
2019-01-19T05:25:18.834Z,89.30
2019-01-19T05:27:48.189Z,89.90
2019-01-19T05:30:19.986Z,90.00
2019-01-19T05:32:50.209Z,89.60
2019-01-19T05:35:20.026Z,90.00
2019-01-19T05:37:49.643Z,90.00
2019-01-19T05:40:18.631Z,90.40
2019-01-19T05:42:48.082Z,90.40
2019-01-19T05:45:17.546Z,90.90
2019-01-19T05:47:46.617Z,91.10
2019-01-19T05:50:18.795Z,90.60
2019-01-19T05:52:48.961Z,90.10
2019-01-19T05:55:18.727Z,90.40
2019-01-19T05:57:48.547Z,90.40
2019-01-19T06:00:33.031Z,90.70
2019-01-19T06:03:02.814Z,90.70
2019-01-19T06:05:31.942Z,90.10
2019-01-19T06:08:01.661Z,90.40
2019-01-19T06:10:31.939Z,90.30
2019-01-19T06:13:02.003Z,89.70
2019-01-19T06:15:32.290Z,90.00
2019-01-19T06:18:01.618Z,89.40
2019-01-19T06:20:31.002Z,90.10
2019-01-19T06:23:00.344Z,89.00
2019-01-19T06:25:30.005Z,89.70
2019-01-19T06:27:59.374Z,88.70
2019-01-19T06:30:28.764Z,89.30
2019-01-19T06:32:58.218Z,89.10
2019-01-19T06:35:27.247Z,88.80
2019-01-19T06:37:56.932Z,89.40
2019-01-19T06:40:27.162Z,89.50
2019-01-19T06:42:56.250Z,90.10
2019-01-19T06:45:26.650Z,89.80
2019-01-19T06:47:55.705Z,89.60
2019-01-19T06:50:25.407Z,89.60
2019-01-19T06:52:54.877Z,90.10
2019-01-19T06:55:29.817Z,90.20
2019-01-19T06:57:59.655Z,90.80
2019-01-19T07:00:29.157Z,91.30
2019-01-19T07:02:58.587Z,91.10
2019-01-19T07:05:27.931Z,91.30
2019-01-19T07:07:57.325Z,88.70
2019-01-19T07:10:29.511Z,87.00
2019-01-19T07:12:58.814Z,88.90
2019-01-19T07:15:28.306Z,90.30
2019-01-19T07:17:57.420Z,88.70
2019-01-19T07:20:28.873Z,88.70
2019-01-19T07:22:57.921Z,88.70
2019-01-19T07:25:27.305Z,87.70
2019-01-19T07:27:57.038Z,90.00
2019-01-19T07:30:26.427Z,87.30
2019-01-19T07:32:55.789Z,89.00
2019-01-19T07:35:24.906Z,88.20
2019-01-19T07:37:54.503Z,87.20
2019-01-19T07:40:23.971Z,88.60
2019-01-19T07:42:59.211Z,87.90
2019-01-19T07:45:28.273Z,87.00
2019-01-19T07:47:57.331Z,89.20
2019-01-19T07:50:27.112Z,87.60
2019-01-19T07:52:56.181Z,85.60
2019-01-19T07:55:25.889Z,87.20
2019-01-19T07:57:55.308Z,88.90
2019-01-19T08:00:28.047Z,86.30
2019-01-19T08:02:57.463Z,89.20
2019-01-19T08:05:27.840Z,84.30
2019-01-19T08:07:57.456Z,84.00
2019-01-19T08:10:26.888Z,85.90
2019-01-19T08:12:56.989Z,87.10
2019-01-19T08:15:29.485Z,86.40
2019-01-19T08:17:59.599Z,86.50
2019-01-19T08:20:29.482Z,84.60
2019-01-19T08:22:58.980Z,83.80
2019-01-19T08:25:28.275Z,86.50
2019-01-19T08:27:57.344Z,84.50
2019-01-19T08:30:28.314Z,84.00
2019-01-19T08:32:58.292Z,85.20
2019-01-19T08:35:28.425Z,88.20
2019-01-19T08:37:58.184Z,85.90
2019-01-19T08:40:30.459Z,82.70
2019-01-19T08:43:07.381Z,84.70
2019-01-19T08:45:36.892Z,81.20
2019-01-19T08:48:06.591Z,83.20
2019-01-19T08:50:36.221Z,81.90
2019-01-19T08:53:05.621Z,80.30
2019-01-19T08:55:37.872Z,81.00
2019-01-19T08:58:07.022Z,80.00
2019-01-19T09:00:36.778Z,81.20
2019-01-19T09:03:06.843Z,79.30
2019-01-19T09:05:35.938Z,78.30
2019-01-19T09:08:06.488Z,79.20
2019-01-19T09:10:35.572Z,76.30
2019-01-19T09:13:05.852Z,77.60
2019-01-19T09:15:36.101Z,78.10
2019-01-19T09:18:05.401Z,79.30
2019-01-19T09:20:35.579Z,82.50
2019-01-19T09:23:15.001Z,78.40
2019-01-19T09:25:44.612Z,78.10
2019-01-19T09:28:13.799Z,77.10
2019-01-19T09:30:43.465Z,77.10
2019-01-19T09:33:13.281Z,77.90
2019-01-19T09:35:44.465Z,76.90
2019-01-19T09:38:13.633Z,80.30
2019-01-19T09:40:43.089Z,75.00
2019-01-19T09:43:12.195Z,75.40
2019-01-19T09:45:41.979Z,75.80
2019-01-19T09:48:11.048Z,73.30
2019-01-19T09:50:40.186Z,71.30
2019-01-19T09:53:10.302Z,68.70
2019-01-19T09:55:41.190Z,67.10
2019-01-19T09:58:10.682Z,67.60
2019-01-19T10:00:45.776Z,64.70
2019-01-19T10:03:13.968Z,60.90
2019-01-19T10:05:44.125Z,61.20
2019-01-19T10:08:13.566Z,58.60
2019-01-19T10:10:43.634Z,57.50
2019-01-19T10:13:13.617Z,54.90
2019-01-19T10:15:42.959Z,56.00
2019-01-19T10:18:12.710Z,56.60
2019-01-19T10:20:43.669Z,57.80
2019-01-19T10:23:13.306Z,57.20
2019-01-19T10:25:43.761Z,50.60
2019-01-19T10:28:14.057Z,50.10
2019-01-19T10:30:43.562Z,52.40
2019-01-19T10:33:13.165Z,50.70
2019-01-19T10:35:42.582Z,52.90
2019-01-19T10:38:12.255Z,51.00
2019-01-19T10:40:42.426Z,55.60
2019-01-19T10:43:12.008Z,56.00
2019-01-19T10:45:41.912Z,62.10
2019-01-19T10:48:11.401Z,60.70
2019-01-19T10:50:40.760Z,62.10
2019-01-19T10:53:09.892Z,65.80
2019-01-19T10:55:40.181Z,63.10
2019-01-19T10:58:09.640Z,65.30
2019-01-19T11:00:40.246Z,66.40
2019-01-19T11:03:09.309Z,72.10
2019-01-19T11:05:41.069Z,70.00
2019-01-19T11:08:13.296Z,71.30
2019-01-19T11:10:42.783Z,68.90
2019-01-19T11:13:12.375Z,71.20
2019-01-19T11:15:42.645Z,71.30
2019-01-19T11:18:12.431Z,70.70
2019-01-19T11:20:41.942Z,69.70
2019-01-19T11:23:11.950Z,71.40
2019-01-19T11:25:41.366Z,72.30
2019-01-19T11:28:10.466Z,71.70
2019-01-19T11:30:40.027Z,69.20
2019-01-19T11:33:10.905Z,69.00
2019-01-19T11:35:40.440Z,70.30
2019-01-19T11:38:12.145Z,68.30
2019-01-19T11:40:41.598Z,67.80
2019-01-19T11:43:11.420Z,71.70
2019-01-19T11:45:41.304Z,69.80
2019-01-19T11:48:11.254Z,67.30
2019-01-19T11:50:41.723Z,69.90
2019-01-19T11:53:11.069Z,67.30
2019-01-19T11:55:40.880Z,66.40
2019-01-19T11:58:11.105Z,70.80
2019-01-19T12:00:41.531Z,71.50
2019-01-19T12:03:11.639Z,66.50
2019-01-19T12:05:41.861Z,66.50
2019-01-19T12:08:19.162Z,68.20
2019-01-19T12:10:44.163Z,68.10
2019-01-19T12:13:13.257Z,69.40
2019-01-19T12:15:42.665Z,65.70
2019-01-19T12:18:12.108Z,65.60
2019-01-19T12:20:44.127Z,68.00
2019-01-19T12:23:13.960Z,65.80
2019-01-19T12:25:44.944Z,67.60
2019-01-19T12:28:16.699Z,65.50
2019-01-19T12:30:46.225Z,63.60
2019-01-19T12:33:17.440Z,68.10
2019-01-19T12:35:46.462Z,64.90
2019-01-19T12:38:16.590Z,67.00
2019-01-19T12:40:46.006Z,65.60
2019-01-19T12:43:18.516Z,65.60
2019-01-19T12:45:59.928Z,63.40
2019-01-19T12:48:29.249Z,63.80
2019-01-19T12:50:59.208Z,64.50
2019-01-19T12:53:28.475Z,68.30
2019-01-19T12:55:58.020Z,65.10
2019-01-19T12:58:27.323Z,63.60
2019-01-19T13:00:57.377Z,63.40
2019-01-19T13:03:26.890Z,62.90
2019-01-19T13:06:24.542Z,65.30
2019-01-19T13:08:53.719Z,64.30
2019-01-19T13:12:06.922Z,63.30
2019-01-19T13:14:40.323Z,63.70
2019-01-19T13:17:56.723Z,65.90
2019-01-19T13:21:12.922Z,66.50
2019-01-19T13:24:22.426Z,63.50
2019-01-19T13:27:17.372Z,64.50
2019-01-19T13:30:30.500Z,66.20
2019-01-19T13:33:58.963Z,65.00
2019-01-19T13:36:59.274Z,63.70
2019-01-19T13:39:52.415Z,64.30
2019-01-19T13:42:59.609Z,63.10
2019-01-19T13:45:49.987Z,67.20
2019-01-19T13:48:59.549Z,64.20
2019-01-19T13:51:46.642Z,64.90
2019-01-19T13:54:58.524Z,68.30
2019-01-19T13:57:47.336Z,64.70
2019-01-19T14:01:07.103Z,64.30
2019-01-19T14:04:10.616Z,62.90
2019-01-19T14:07:14.917Z,62.70
2019-01-19T14:10:16.696Z,65.10
2019-01-19T14:13:27.063Z,66.30
2019-01-19T14:16:15.715Z,65.40
2019-01-19T14:18:51.493Z,64.10
2019-01-19T14:22:11.578Z,64.70
2019-01-19T14:25:14.681Z,65.50
2019-01-19T14:28:12.505Z,64.20
2019-01-19T14:31:18.478Z,67.30
2019-01-19T14:34:33.691Z,64.30
2019-01-19T14:37:56.217Z,70.20
2019-01-19T14:40:39.973Z,66.10
2019-01-19T14:43:38.752Z,69.30
2019-01-19T14:46:47.502Z,67.80
2019-01-19T14:49:56.709Z,68.30
2019-01-19T14:52:54.775Z,68.60
2019-01-19T14:56:04.734Z,70.60
2019-01-19T14:58:56.100Z,67.00
2019-01-19T15:02:20.817Z,67.90
2019-01-19T15:05:00.926Z,70.50
2019-01-19T15:08:06.429Z,68.70
2019-01-19T15:11:10.122Z,68.40
2019-01-19T15:14:00.890Z,70.00
2019-01-19T15:16:57.578Z,72.20
2019-01-19T15:20:15.127Z,74.70
2019-01-19T15:23:39.262Z,70.50
2019-01-19T15:26:41.623Z,71.90
2019-01-19T15:29:47.569Z,76.00
2019-01-19T15:32:49.461Z,76.40
2019-01-19T15:36:00.370Z,73.10
2019-01-19T15:39:15.886Z,72.90
2019-01-19T15:42:31.577Z,71.10
2019-01-19T15:45:53.534Z,73.10
2019-01-19T15:48:58.489Z,73.60
2019-01-19T15:52:18.162Z,73.80
2019-01-19T15:55:13.051Z,74.70
2019-01-19T15:58:10.697Z,75.30
2019-01-19T16:00:59.938Z,73.90
2019-01-19T16:04:19.915Z,76.80
2019-01-19T16:07:18.257Z,74.20
2019-01-19T16:10:28.240Z,74.00
2019-01-19T16:13:34.605Z,74.70
2019-01-19T16:16:28.873Z,75.10
2019-01-19T16:19:38.281Z,80.10
2019-01-19T16:22:13.963Z,76.00
2019-01-19T16:25:22.757Z,75.10
2019-01-19T16:28:34.962Z,76.70
2019-01-19T16:31:46.225Z,76.50
2019-01-19T16:34:42.955Z,75.80
2019-01-19T16:37:43.365Z,78.50
2019-01-19T16:40:44.005Z,76.20
2019-01-19T16:43:46.987Z,76.20
2019-01-19T16:46:57.798Z,78.90
2019-01-19T16:50:00.939Z,79.30
2019-01-19T16:52:39.191Z,77.10
2019-01-19T16:55:51.974Z,77.40
2019-01-19T16:59:17.271Z,80.40
2019-01-19T17:02:24.879Z,78.60
2019-01-19T17:05:37.525Z,79.70
2019-01-19T17:08:45.142Z,76.80
2019-01-19T17:11:49.942Z,77.00
2019-01-19T17:15:03.526Z,78.80
2019-01-19T17:18:02.560Z,77.70
2019-01-19T17:21:16.065Z,79.80
2019-01-19T17:24:13.887Z,79.70
2019-01-19T17:27:09.245Z,78.80
2019-01-19T17:30:01.735Z,79.00
2019-01-19T17:33:11.698Z,81.60
2019-01-19T17:36:12.558Z,76.90
2019-01-19T17:39:22.416Z,78.50
2019-01-19T17:42:30.333Z,76.10
2019-01-19T17:45:30.237Z,75.60
2019-01-19T17:48:35.601Z,79.10
2019-01-19T17:51:33.759Z,78.10
2019-01-19T17:54:38.552Z,79.30
2019-01-19T17:57:53.405Z,76.70
2019-01-19T18:00:50.198Z,77.40
2019-01-19T18:03:50.902Z,79.40
2019-01-19T18:06:33.525Z,77.90
2019-01-19T18:09:50.668Z,77.00
2019-01-19T18:12:40.461Z,79.30
2019-01-19T18:15:39.425Z,77.30
2019-01-19T18:18:59.102Z,76.60
2019-01-19T18:21:47.171Z,77.80
2019-01-19T18:24:45.174Z,80.80
2019-01-19T18:27:48.079Z,78.30
2019-01-19T18:30:43.037Z,81.00
2019-01-19T18:33:40.785Z,75.80
2019-01-19T18:36:38.693Z,79.50
2019-01-19T18:39:35.251Z,78.20
2019-01-19T18:42:31.025Z,77.40
2019-01-19T18:45:26.910Z,77.40
2019-01-19T18:48:25.506Z,76.60
2019-01-19T18:51:25.475Z,75.90
2019-01-19T18:54:29.993Z,76.20
2019-01-19T18:57:43.635Z,77.20
2019-01-19T19:01:06.338Z,76.30
2019-01-19T19:04:02.999Z,77.20
2019-01-19T19:07:02.890Z,77.20
2019-01-19T19:10:04.094Z,78.90
2019-01-19T19:13:17.804Z,76.00
2019-01-19T19:16:26.545Z,78.10
2019-01-19T19:19:31.354Z,77.90
2019-01-19T19:22:24.145Z,76.70
2019-01-19T19:25:29.427Z,77.50
2019-01-19T19:28:26.211Z,77.00
2019-01-19T19:31:40.448Z,82.20
2019-01-19T19:34:29.513Z,79.30
2019-01-19T19:37:11.626Z,76.20
2019-01-19T19:40:36.891Z,79.60
2019-01-19T19:43:28.200Z,80.40
2019-01-19T19:46:22.964Z,79.40
2019-01-19T19:49:21.710Z,79.20
2019-01-19T19:51:58.036Z,74.50
2019-01-19T19:54:29.148Z,78.40
2019-01-19T19:56:59.209Z,78.50
2019-01-19T19:59:28.641Z,77.70
2019-01-19T20:01:57.785Z,78.20
2019-01-19T20:04:26.832Z,77.50
2019-01-19T20:06:55.948Z,77.90
2019-01-19T20:09:25.174Z,79.00
2019-01-19T20:12:01.181Z,78.00
2019-01-19T20:14:30.195Z,78.40
2019-01-19T20:16:59.538Z,80.80
2019-01-19T20:19:28.563Z,80.90
2019-01-19T20:21:57.926Z,81.90
2019-01-19T20:24:27.021Z,78.50
2019-01-19T20:26:58.962Z,78.90
2019-01-19T20:29:28.518Z,76.70
2019-01-19T20:31:59.177Z,76.00
2019-01-19T20:34:28.913Z,78.10
2019-01-19T20:36:58.644Z,81.30
2019-01-19T20:39:27.766Z,77.30
2019-01-19T20:41:57.492Z,78.30
2019-01-19T20:44:27.277Z,79.10
2019-01-19T20:46:56.809Z,80.10
2019-01-19T20:49:27.157Z,81.80
2019-01-19T20:51:56.557Z,81.30
2019-01-19T20:54:25.899Z,81.20
2019-01-19T20:56:55.615Z,81.30
2019-01-19T20:59:25.058Z,79.30
2019-01-19T21:01:55.365Z,80.50
2019-01-19T21:04:24.994Z,82.70
2019-01-19T21:06:54.382Z,82.30
2019-01-19T21:09:23.847Z,81.10
2019-01-19T21:11:53.225Z,80.50
2019-01-19T21:14:23.524Z,80.70
2019-01-19T21:16:53.366Z,82.40
2019-01-19T21:19:22.413Z,79.90
2019-01-19T21:21:52.179Z,83.30
2019-01-19T21:24:21.609Z,82.50
2019-01-19T21:26:51.665Z,80.60
2019-01-19T21:29:21.542Z,79.10
2019-01-19T21:31:51.068Z,82.80
2019-01-19T21:34:20.418Z,83.50
2019-01-19T21:36:49.760Z,82.60
2019-01-19T21:39:19.075Z,81.80
2019-01-19T21:41:48.257Z,81.30
2019-01-19T21:44:17.934Z,83.00
2019-01-19T21:46:47.619Z,81.50
2019-01-19T21:49:17.208Z,82.60
2019-01-19T21:51:46.603Z,84.10
2019-01-19T21:54:16.957Z,81.60
2019-01-19T21:56:48.497Z,84.20
2019-01-19T21:59:18.351Z,82.30
2019-01-19T22:01:47.999Z,83.80
2019-01-19T22:04:18.430Z,82.80
2019-01-19T22:06:48.209Z,82.60
2019-01-19T22:09:17.644Z,85.80
2019-01-19T22:11:47.242Z,81.50
2019-01-19T22:14:16.878Z,83.20
2019-01-19T22:16:46.562Z,84.40
2019-01-19T22:19:16.664Z,82.50
2019-01-19T22:21:46.559Z,84.10
2019-01-19T22:24:18.098Z,84.80
2019-01-19T22:26:52.063Z,82.40
2019-01-19T22:29:23.675Z,84.70
2019-01-19T22:31:53.374Z,83.10
2019-01-19T22:34:23.014Z,82.30
2019-01-19T22:36:52.998Z,84.90
2019-01-19T22:39:23.498Z,85.70
2019-01-19T22:41:52.860Z,83.00
2019-01-19T22:44:22.534Z,85.40
2019-01-19T22:46:52.679Z,85.70
2019-01-19T22:49:21.977Z,85.90
2019-01-19T22:51:51.698Z,86.50
2019-01-19T22:54:21.530Z,83.40
2019-01-19T22:56:51.048Z,83.90
2019-01-19T22:59:20.343Z,83.30
2019-01-19T23:01:55.559Z,85.30
2019-01-19T23:04:24.613Z,85.20
2019-01-19T23:06:54.170Z,82.70
2019-01-19T23:09:23.635Z,84.40
2019-01-19T23:11:53.899Z,85.00
2019-01-19T23:14:23.310Z,86.40
2019-01-19T23:16:52.530Z,86.40
2019-01-19T23:19:21.509Z,85.20
2019-01-19T23:21:51.311Z,86.60
2019-01-19T23:24:20.407Z,86.00
2019-01-19T23:26:50.158Z,86.10
2019-01-19T23:29:19.333Z,84.60
2019-01-19T23:31:48.798Z,85.00
2019-01-19T23:34:18.462Z,86.40
2019-01-19T23:36:48.652Z,87.40
2019-01-19T23:39:17.979Z,88.30
2019-01-19T23:41:47.414Z,88.40
2019-01-19T23:44:17.135Z,89.80
2019-01-19T23:46:46.765Z,87.70
2019-01-19T23:49:16.258Z,89.50
2019-01-19T23:51:45.796Z,87.90
2019-01-19T23:54:15.713Z,88.30
2019-01-19T23:56:45.568Z,88.40
2019-01-19T23:59:16.396Z,90.10
